Time;durP1;ratioP1;P1;durP2;ratioP2;P2;SDS_P1;SDS_P2;PMS_P1;PMS_P2;Temp;Humidity;BMP_temperature;BMP_pressure;BME280_temperature;BME280_humidity;BME280_pressure;Samples;Min_cycle;Max_cycle;Signal;HPM_P1;HPM_P2
2021/03/13 00:02:43;;;;;;;15.48;5.80;;;;;;;-0.18;100.00;98435.41;4428913;78;43909;-77
2021/03/13 00:08:45;;;;;;;13.10;5.23;;;;;;;-0.13;100.00;98429.11;4411425;78;28615;-77
2021/03/13 00:14:47;;;;;;;14.20;5.67;;;;;;;-0.11;100.00;98430.23;4420817;78;43905;-77
2021/03/13 00:20:50;;;;;;;14.68;5.12;;;;;;;-0.25;100.00;98429.21;4427672;78;43903;-77
2021/03/13 00:26:52;;;;;;;13.10;5.22;;;;;;;-0.23;100.00;98426.70;4422102;78;28561;-77
2021/03/13 00:32:58;;;;;;;15.28;6.10;;;;;;;-0.15;100.00;98428.48;4424694;79;43933;-78
2021/03/13 00:39:00;;;;;;;14.40;5.90;;;;;;;-0.31;100.00;98417.02;4437218;79;43969;-78
2021/03/13 00:45:04;;;;;;;17.12;5.60;;;;;;;-0.43;100.00;98404.70;4421814;79;44222;-77
2021/03/13 00:51:06;;;;;;;14.25;4.67;;;;;;;-0.48;100.00;98399.14;4425346;79;43920;-77
2021/03/13 00:57:09;;;;;;;11.97;4.92;;;;;;;-0.38;100.00;98400.22;4420208;79;43207;-78
2021/03/13 01:03:11;;;;;;;12.47;5.55;;;;;;;-0.42;100.00;98396.30;4416567;79;43211;-78
2021/03/13 01:09:14;;;;;;;10.55;4.20;;;;;;;-0.37;100.00;98398.41;4428441;79;43332;-78
2021/03/13 01:15:20;;;;;;;15.98;5.65;;;;;;;-0.47;100.00;98394.66;4408273;79;44004;-77
2021/03/13 01:21:22;;;;;;;10.72;3.75;;;;;;;-0.66;100.00;98386.70;4414337;79;43212;-77
2021/03/13 01:27:25;;;;;;;13.83;4.33;;;;;;;-0.51;100.00;98381.02;4421941;79;28675;-76
2021/03/13 01:33:27;;;;;;;9.45;4.17;;;;;;;-0.37;100.00;98377.28;4412773;79;42978;-78
2021/03/13 01:39:31;;;;;;;12.88;4.47;;;;;;;-0.11;100.00;98361.53;4417945;79;43237;-78
2021/03/13 01:45:33;;;;;;;14.63;5.12;;;;;;;-0.30;100.00;98368.46;4419799;79;43931;-78
2021/03/13 01:51:35;;;;;;;11.20;4.90;;;;;;;-0.44;100.00;98365.28;4421523;79;43249;-78
2021/03/13 01:57:39;;;;;;;12.03;5.37;;;;;;;-0.44;100.00;98367.41;4427696;79;43259;-78
2021/03/13 02:03:42;;;;;;;13.38;4.72;;;;;;;-0.45;100.00;98367.09;4420396;79;43230;-78
2021/03/13 02:10:08;;;;;;;12.93;4.47;;;;;;;-0.43;100.00;98353.72;4427948;79;43306;-78
2021/03/13 02:16:30;;;;;;;13.78;4.85;;;;;;;-0.17;100.00;98354.66;4412638;79;28556;-77
2021/03/13 02:22:40;;;;;;;9.10;4.35;;;;;;;-0.20;100.00;98336.53;4417042;79;42694;-76
2021/03/13 02:29:35;;;;;;;10.45;4.20;;;;;;;-0.41;100.00;98335.06;4588673;76;75482;-78
2021/03/13 02:35:42;;;;;;;11.60;4.95;;;;;;;-0.58;100.00;98331.21;4488855;78;43242;-79
2021/03/13 02:41:49;;;;;;;13.08;5.97;;;;;;;-0.52;100.00;98334.48;4319090;80;43215;-79
2021/03/13 02:47:53;;;;;;;13.45;5.47;;;;;;;-0.50;100.00;98335.12;4441158;78;43687;-78
2021/03/13 02:53:58;;;;;;;13.08;4.83;;;;;;;-0.59;100.00;98329.05;4435944;79;28622;-78
2021/03/13 03:00:03;;;;;;;12.07;4.87;;;;;;;-0.69;100.00;98317.91;4415533;78;43234;-78
2021/03/13 03:06:08;;;;;;;11.22;3.80;;;;;;;-0.77;100.00;98317.48;4442013;79;43227;-78
2021/03/13 03:12:15;;;;;;;7.40;3.15;;;;;;;-0.69;100.00;98303.39;4437620;78;42847;-78
2021/03/13 03:18:25;;;;;;;8.28;3.55;;;;;;;-0.74;100.00;98299.15;4438070;78;28634;-78
2021/03/13 03:24:25;;;;;;;7.00;2.77;;;;;;;-0.60;100.00;98308.13;4446394;79;41868;-78
2021/03/13 03:30:32;;;;;;;7.37;2.77;;;;;;;-0.58;100.00;98300.84;4461343;79;41854;-78
2021/03/13 03:36:35;;;;;;;9.95;3.10;;;;;;;-0.62;100.00;98289.01;4426046;79;43297;-78
2021/03/13 03:42:49;;;;;;;5.35;2.42;;;;;;;-0.60;100.00;98283.84;4413752;80;43475;-78
2021/03/13 03:48:53;;;;;;;4.78;1.70;;;;;;;-0.57;100.00;98282.20;4331987;80;43383;-78
2021/03/13 03:54:58;;;;;;;5.12;1.70;;;;;;;-0.41;100.00;98275.12;4274357;82;28569;-78
2021/03/13 04:01:02;;;;;;;3.17;1.25;;;;;;;-0.42;100.00;98266.88;4447258;78;43285;-78
2021/03/13 04:07:05;;;;;;;7.12;1.77;;;;;;;-0.29;100.00;98260.98;4437494;78;43459;-78
2021/03/13 04:13:08;;;;;;;4.37;1.80;;;;;;;-0.33;100.00;98248.63;4428443;79;43455;-78
2021/03/13 04:19:12;;;;;;;5.05;1.70;;;;;;;-0.37;100.00;98240.73;4463218;78;43493;-78
2021/03/13 04:25:15;;;;;;;5.33;1.50;;;;;;;-0.18;100.00;98231.96;4443974;79;43274;-79
2021/03/13 04:31:29;;;;;;;3.12;1.27;;;;;;;-0.08;100.00;98221.14;4454648;79;43230;-79
2021/03/13 04:37:32;;;;;;;3.20;1.10;;;;;;;-0.04;100.00;98221.91;4463645;80;43239;-79
2021/03/13 04:43:35;;;;;;;3.80;1.37;;;;;;;0.09;100.00;98221.77;4438825;79;43242;-80
2021/03/13 04:49:38;;;;;;;4.85;1.32;;;;;;;0.13;100.00;98225.19;4457220;78;43207;-79
2021/03/13 04:55:40;;;;;;;4.05;1.50;;;;;;;0.22;100.00;98215.84;4464406;79;43206;-79
2021/03/13 05:01:42;;;;;;;2.70;1.20;;;;;;;0.36;100.00;98196.47;4464316;80;43246;-79
2021/03/13 05:07:44;;;;;;;4.30;1.20;;;;;;;0.67;100.00;98194.55;4463258;79;43657;-78
2021/03/13 05:13:46;;;;;;;3.52;1.20;;;;;;;0.88;100.00;98197.73;4462577;79;43207;-78
2021/03/13 05:19:48;;;;;;;3.80;1.30;;;;;;;1.05;100.00;98192.98;4454694;79;43207;-78
2021/03/13 05:25:50;;;;;;;3.47;1.20;;;;;;;1.21;100.00;98185.28;4466045;80;43226;-78
2021/03/13 05:31:52;;;;;;;4.80;1.20;;;;;;;1.40;100.00;98185.63;4458404;79;43250;-78
2021/03/13 05:37:55;;;;;;;3.05;1.10;;;;;;;1.61;100.00;98182.09;4471165;78;28547;-78
2021/03/13 05:44:07;;;;;;;2.27;0.93;;;;;;;1.88;100.00;98174.83;4471354;79;28594;-79
2021/03/13 05:50:16;;;;;;;2.27;0.80;;;;;;;2.11;100.00;98174.51;4444639;78;28590;-79
2021/03/13 05:56:18;;;;;;;3.40;0.78;;;;;;;2.56;100.00;98165.29;4464657;79;28569;-76
2021/03/13 06:02:20;;;;;;;2.70;0.80;;;;;;;3.11;100.00;98177.08;4471156;80;28614;-76
2021/03/13 06:08:23;;;;;;;1.92;0.70;;;;;;;3.54;100.00;98174.52;4470907;79;28548;-75
2021/03/13 06:14:25;;;;;;;3.42;1.05;;;;;;;3.92;100.00;98181.52;4461967;79;28623;-76
2021/03/13 06:20:38;;;;;;;2.50;0.78;;;;;;;4.41;100.00;98193.39;4448031;79;28608;-74
2021/03/13 06:26:59;;;;;;;2.83;1.00;;;;;;;4.82;100.00;98193.17;4469570;79;28563;-74
2021/03/13 06:33:24;;;;;;;3.70;1.57;;;;;;;5.25;94.83;98198.33;4471017;79;28559;-75
2021/03/13 06:39:40;;;;;;;;;;;;;;;5.56;90.22;98213.97;4469194;79;28642;-75
2021/03/13 06:46:00;;;;;;;2.83;1.05;;;;;;;5.84;89.09;98208.69;4470290;78;20220;-77
2021/03/13 06:52:03;;;;;;;4.20;1.10;;;;;;;6.10;89.72;98215.63;4466570;78;28543;-77
2021/03/13 07:04:30;;;;;;;4.37;1.25;;;;;;;6.73;82.89;98222.16;4465142;79;85670;-79
2021/03/13 07:10:32;;;;;;;4.72;1.67;;;;;;;6.83;84.07;98229.11;4376389;80;28591;-82
2021/03/13 07:16:38;;;;;;;3.75;1.30;;;;;;;6.93;81.42;98236.59;4386625;80;28563;-81
2021/03/13 07:22:42;;;;;;;4.20;1.50;;;;;;;7.15;80.46;98244.10;4369842;80;28596;-80
2021/03/13 07:28:44;;;;;;;3.33;1.17;;;;;;;7.32;81.89;98252.28;4395543;80;28577;-81
2021/03/13 07:34:47;;;;;;;4.00;1.20;;;;;;;7.50;80.71;98247.36;4380844;80;28602;-80
2021/03/13 07:40:51;;;;;;;3.85;1.10;;;;;;;7.68;81.63;98260.36;4382690;80;28647;-79
2021/03/13 07:46:54;;;;;;;4.35;1.20;;;;;;;7.80;79.41;98263.02;4345250;80;28561;-81
2021/03/13 07:52:57;;;;;;;8.20;1.20;;;;;;;7.94;78.86;98260.43;4396012;80;28563;-82
2021/03/13 07:59:00;;;;;;;3.85;1.57;;;;;;;8.11;79.57;98253.55;4394920;80;28593;-81
2021/03/13 08:05:07;;;;;;;3.35;1.15;;;;;;;8.14;77.37;98247.72;4403345;78;28615;-80
2021/03/13 08:11:20;;;;;;;3.87;1.10;;;;;;;8.09;80.60;98261.81;4408490;78;28561;-83
2021/03/13 08:17:26;;;;;;;2.92;1.20;;;;;;;8.20;85.60;98252.95;4387335;78;28561;-82
2021/03/13 08:23:32;;;;;;;;;;;;;;;7.97;83.01;98262.34;4383474;78;28603;-83
2021/03/13 08:29:51;;;;;;;3.03;1.17;;;;;;;7.95;85.01;98267.91;4406980;78;20184;-82
2021/03/13 08:35:54;;;;;;;2.37;0.90;;;;;;;8.03;83.45;98261.42;4394336;78;28612;-79
2021/03/13 08:41:57;;;;;;;4.28;1.27;;;;;;;8.10;84.24;98262.09;4413317;78;28544;-80
2021/03/13 08:48:00;;;;;;;4.55;1.65;;;;;;;8.11;83.19;98261.58;4409793;78;28585;-81
2021/03/13 08:54:03;;;;;;;4.40;1.25;;;;;;;8.09;85.73;98251.92;4425709;78;28564;-80
2021/03/13 09:00:07;;;;;;;4.60;1.20;;;;;;;8.16;81.25;98260.34;4399238;78;28551;-83
2021/03/13 09:06:11;;;;;;;2.08;0.90;;;;;;;8.27;82.39;98257.38;4311968;80;28596;-84
2021/03/13 09:12:19;;;;;;;4.28;1.30;;;;;;;8.71;81.02;98260.98;4318595;80;28609;-83
2021/03/13 09:18:21;;;;;;;4.17;1.20;;;;;;;8.63;78.73;98271.02;4333333;80;28541;-82
2021/03/13 09:24:27;;;;;;;3.92;1.37;;;;;;;8.65;77.81;98252.83;4342272;80;28575;-85
2021/03/13 09:30:29;;;;;;;4.20;1.20;;;;;;;8.73;77.31;98271.73;4329688;80;28586;-83
2021/03/13 09:36:32;;;;;;;2.72;1.30;;;;;;;8.72;75.65;98260.72;4320807;80;28581;-86
2021/03/13 09:42:35;;;;;;;2.85;1.30;;;;;;;8.78;75.86;98259.78;4330259;80;28545;-84
2021/03/13 09:48:37;;;;;;;4.53;1.67;;;;;;;8.80;74.88;98266.26;4321828;80;28603;-86
2021/03/13 09:54:41;;;;;;;4.15;1.00;;;;;;;8.91;76.92;98249.31;4335074;80;28616;-83
2021/03/13 10:00:43;;;;;;;5.90;1.25;;;;;;;8.89;72.54;98243.89;4347452;80;28604;-86
2021/03/13 10:06:47;;;;;;;4.00;1.20;;;;;;;9.10;75.32;98219.59;4386397;80;28543;-86
2021/03/13 10:12:53;;;;;;;4.10;1.37;;;;;;;9.22;72.02;98233.48;4401002;78;28653;-87
2021/03/13 10:18:58;;;;;;;1.85;0.90;;;;;;;9.38;69.93;98233.22;4381539;80;28619;-87
2021/03/13 10:25:04;;;;;;;3.22;1.22;;;;;;;9.28;72.37;98219.09;4397561;78;28615;-88
2021/03/13 10:31:12;;;;;;;3.90;1.17;;;;;;;9.45;72.33;98221.27;4396787;80;28932;-87
2021/03/13 10:37:42;;;;;;;2.22;1.20;;;;;;;9.59;70.96;98213.70;4380505;80;50524;-88
2021/03/13 10:43:46;;;;;;;2.35;1.00;;;;;;;9.81;70.13;98214.81;4401223;80;28579;-87
2021/03/13 10:49:58;;;;;;;3.17;1.17;;;;;;;10.01;67.91;98194.16;4369584;80;28561;-87
2021/03/13 10:56:07;;;;;;;2.30;1.00;;;;;;;10.09;68.61;98192.36;4376094;80;28616;-88
2021/03/13 11:02:10;;;;;;;2.33;1.25;;;;;;;10.07;68.43;98185.64;4408471;78;28592;-88
2021/03/13 11:08:12;;;;;;;2.40;1.00;;;;;;;10.17;67.87;98179.84;4356436;80;28548;-88
2021/03/13 11:14:15;;;;;;;2.67;0.90;;;;;;;10.27;64.46;98172.46;4301820;82;28546;-88
2021/03/13 11:20:17;;;;;;;5.40;1.20;;;;;;;10.36;64.53;98157.22;4346391;81;28543;-84
2021/03/13 11:26:21;;;;;;;6.05;1.17;;;;;;;10.43;64.80;98168.62;4263713;82;28580;-85
2021/03/13 11:32:23;;;;;;;4.58;1.22;;;;;;;10.63;62.97;98157.82;4297479;81;28548;-84
2021/03/13 11:38:25;;;;;;;2.40;1.30;;;;;;;10.80;63.10;98141.58;4262073;82;28570;-83
2021/03/13 11:44:28;;;;;;;3.40;1.40;;;;;;;11.22;72.46;98138.17;4282413;82;28571;-84
2021/03/13 11:50:30;;;;;;;2.58;0.93;;;;;;;11.38;59.31;98112.19;4328672;81;28628;-86
2021/03/13 11:56:33;;;;;;;2.85;1.20;;;;;;;11.33;58.96;98104.61;4324712;80;28645;-85
2021/03/13 12:02:36;;;;;;;5.25;1.40;;;;;;;11.25;58.60;98097.84;4296396;82;28609;-84
2021/03/13 12:08:39;;;;;;;4.45;1.50;;;;;;;11.37;59.43;98085.55;4274013;81;28552;-84
2021/03/13 12:14:41;;;;;;;4.65;1.20;;;;;;;11.55;57.16;98072.19;4323518;80;28572;-85
2021/03/13 12:20:44;;;;;;;2.62;1.05;;;;;;;11.54;54.10;98066.53;4308420;81;28565;-85
2021/03/13 12:26:47;;;;;;;2.70;1.10;;;;;;;11.56;54.53;98039.63;4415584;79;28630;-84
2021/03/13 12:32:50;;;;;;;3.22;1.12;;;;;;;11.51;54.87;98058.44;4401278;80;28567;-83
2021/03/13 12:38:52;;;;;;;2.22;0.90;;;;;;;11.35;53.39;98049.99;4420939;78;28561;-87
2021/03/13 12:44:54;;;;;;;3.50;0.90;;;;;;;11.39;54.09;98034.96;4338474;81;28558;-84
2021/03/13 12:50:58;;;;;;;1.75;0.85;;;;;;;11.43;53.14;98039.56;4287287;82;28650;-85
2021/03/13 12:57:00;;;;;;;3.72;1.10;;;;;;;11.41;51.84;98030.12;4318748;81;28591;-84
2021/03/13 13:03:04;;;;;;;4.20;1.05;;;;;;;11.44;51.11;98016.95;4269194;82;28537;-82
2021/03/13 13:09:06;;;;;;;2.98;1.07;;;;;;;11.57;52.31;97991.97;4261081;82;28625;-83
2021/03/13 13:15:10;;;;;;;2.47;1.22;;;;;;;11.49;52.00;97995.16;4368119;81;28626;-83
2021/03/13 13:21:13;;;;;;;2.17;1.00;;;;;;;11.67;51.51;97988.52;4350711;81;28645;-83
2021/03/13 13:27:15;;;;;;;4.67;1.12;;;;;;;11.69;50.47;97982.33;4361757;79;28629;-84
2021/03/13 13:33:18;;;;;;;3.40;1.30;;;;;;;11.61;51.01;97968.85;4348048;81;28567;-84
2021/03/13 13:39:20;;;;;;;3.72;1.30;;;;;;;11.61;50.64;97974.23;4332423;81;28648;-83
2021/03/13 13:45:22;;;;;;;4.25;1.40;;;;;;;11.77;52.09;97962.98;4348048;81;28585;-83
2021/03/13 13:51:27;;;;;;;4.58;1.47;;;;;;;11.86;51.78;97963.25;4338116;79;28551;-83
2021/03/13 13:57:31;;;;;;;1.70;1.10;;;;;;;11.88;50.73;97961.09;4356153;80;28565;-84
2021/03/13 14:03:35;;;;;;;;;;;;;;;11.95;48.86;97955.45;4372446;80;28578;-84
2021/03/13 14:09:38;;;;;;;2.37;1.10;;;;;;;11.95;48.42;97967.05;4231731;83;20181;-84
2021/03/13 14:15:41;;;;;;;2.52;1.10;;;;;;;11.88;50.14;97941.45;4308840;82;28649;-82
2021/03/13 14:21:44;;;;;;;1.90;0.82;;;;;;;11.77;50.42;97956.77;4291454;81;28677;-82
2021/03/13 14:27:49;;;;;;;1.92;1.00;;;;;;;11.93;51.25;97958.43;4238177;81;28579;-83
2021/03/13 14:33:52;;;;;;;3.50;1.10;;;;;;;11.77;50.49;97950.03;4232197;83;28552;-86
2021/03/13 14:39:54;;;;;;;3.65;1.22;;;;;;;11.70;52.47;97938.17;4331976;80;28595;-88
2021/03/13 14:45:56;;;;;;;3.70;1.60;;;;;;;11.69;54.21;97936.00;4236124;83;28557;-79
2021/03/13 14:51:59;;;;;;;3.22;1.20;;;;;;;11.36;54.98;97940.75;4303789;82;28557;-80
2021/03/13 14:58:02;;;;;;;5.30;1.67;;;;;;;11.30;56.78;97936.44;4257141;81;28598;-79
2021/03/13 15:04:04;;;;;;;2.62;1.20;;;;;;;11.09;57.20;97921.55;4320878;81;28586;-75
2021/03/13 15:10:09;;;;;;;3.77;1.25;;;;;;;11.10;58.11;97912.93;4319080;81;28612;-78
2021/03/13 15:16:12;;;;;;;2.37;1.10;;;;;;;11.21;57.79;97921.31;4322931;80;28548;-80
2021/03/13 15:22:16;;;;;;;3.33;1.22;;;;;;;11.28;57.79;97915.69;4297865;81;28567;-79
2021/03/13 15:28:18;;;;;;;3.50;1.17;;;;;;;11.05;58.47;97892.20;4393856;80;28547;-80
2021/03/13 15:34:20;;;;;;;2.47;1.20;;;;;;;10.85;59.85;97888.89;4405248;79;28548;-78
2021/03/13 15:40:24;;;;;;;3.70;1.30;;;;;;;10.69;61.53;97871.88;4405665;80;28639;-81
2021/03/13 15:46:27;;;;;;;2.47;1.10;;;;;;;10.47;61.03;97854.01;4391410;80;28616;-79
2021/03/13 15:52:29;;;;;;;2.27;1.12;;;;;;;10.48;61.08;97835.99;4444092;80;28613;-79
2021/03/13 15:58:33;;;;;;;3.40;1.17;;;;;;;10.33;60.87;97831.58;4444756;80;28682;-79
2021/03/13 16:04:36;;;;;;;5.10;1.77;;;;;;;10.24;61.30;97827.75;4364661;80;28578;-86
2021/03/13 16:10:41;;;;;;;3.12;1.57;;;;;;;10.15;61.59;97815.35;4330523;81;28548;-89
2021/03/13 16:16:45;;;;;;;3.37;1.50;;;;;;;9.99;62.81;97800.19;4318632;81;28555;-89
2021/03/13 16:22:49;;;;;;;3.12;1.80;;;;;;;9.76;63.00;97793.59;4360706;81;28583;-84
2021/03/13 16:28:54;;;;;;;5.72;2.30;;;;;;;9.59;65.48;97780.31;4181455;84;28674;-85
2021/03/13 16:34:57;;;;;;;4.83;2.30;;;;;;;9.48;68.09;97778.61;4163183;83;28579;-83
2021/03/13 16:41:01;;;;;;;4.35;1.95;;;;;;;9.29;69.77;97770.09;4176199;84;28582;-85
2021/03/13 16:47:06;;;;;;;7.12;2.83;;;;;;;9.13;72.52;97761.10;4230074;83;28558;-83
2021/03/13 16:53:15;;;;;;;5.75;2.55;;;;;;;9.10;73.18;97755.70;4195588;84;28647;-85
2021/03/13 16:59:15;;;;;;;8.37;2.90;;;;;;;9.06;73.86;97755.42;4157141;83;28569;-85
2021/03/13 17:05:18;;;;;;;6.40;3.00;;;;;;;9.03;73.72;97743.05;4241934;81;28559;-82
2021/03/13 17:11:20;;;;;;;6.28;3.02;;;;;;;8.94;74.44;97744.02;4203332;82;28598;-83
2021/03/13 17:17:27;;;;;;;6.30;3.10;;;;;;;8.87;73.71;97741.54;4206574;83;28612;-86
2021/03/13 17:23:31;;;;;;;7.90;3.30;;;;;;;8.79;71.91;97740.13;4250091;82;28667;-88
2021/03/13 17:29:34;;;;;;;6.33;2.77;;;;;;;8.80;70.00;97740.95;4256766;81;28551;-84
2021/03/13 17:35:37;;;;;;;7.53;2.62;;;;;;;8.78;67.46;97737.69;4257649;81;28567;-85
2021/03/13 17:41:40;;;;;;;3.52;1.87;;;;;;;8.83;63.19;97734.25;4239156;82;28641;-79
2021/03/13 17:47:42;;;;;;;5.90;2.10;;;;;;;8.91;61.43;97724.42;4253463;81;28613;-81
2021/03/13 17:53:46;;;;;;;5.10;1.90;;;;;;;9.01;60.62;97723.19;4259552;81;28547;-80
2021/03/13 17:59:48;;;;;;;4.62;1.65;;;;;;;9.04;59.66;97717.86;4209449;84;28591;-80
2021/03/13 18:05:50;;;;;;;6.25;1.77;;;;;;;9.11;57.89;97719.81;4304008;80;28551;-81
2021/03/13 18:11:53;;;;;;;3.77;1.40;;;;;;;9.14;58.52;97707.75;4331865;80;28579;-80
2021/03/13 18:17:58;;;;;;;2.67;1.57;;;;;;;9.13;58.54;97708.30;4334885;80;28543;-81
2021/03/13 18:24:00;;;;;;;2.87;1.40;;;;;;;9.17;60.28;97713.41;4292942;81;28586;-82
2021/03/13 18:30:08;;;;;;;2.77;1.50;;;;;;;9.15;60.35;97712.05;4312857;80;28647;-81
2021/03/13 18:36:13;;;;;;;3.52;1.57;;;;;;;9.22;60.32;97713.20;4311191;80;28602;-81
2021/03/13 18:42:21;;;;;;;3.58;1.40;;;;;;;9.18;60.92;97696.81;4244847;81;28593;-82
2021/03/13 18:48:24;;;;;;;5.60;1.72;;;;;;;9.12;61.62;97702.66;4315016;80;28599;-81
2021/03/13 18:54:28;;;;;;;2.92;1.35;;;;;;;9.19;60.90;97709.94;4308961;82;28555;-83
2021/03/13 19:00:54;;;;;;;2.58;1.20;;;;;;;9.26;60.23;97701.68;4551791;76;67665;-83
2021/03/13 19:06:57;;;;;;;3.60;1.40;;;;;;;9.28;58.95;97706.28;4482645;77;28554;-81
2021/03/13 19:12:59;;;;;;;3.85;1.35;;;;;;;9.25;59.61;97710.80;4500866;77;28594;-81
2021/03/13 19:19:02;;;;;;;4.58;1.57;;;;;;;9.23;60.20;97713.48;4477352;77;28616;-81
2021/03/13 19:25:06;;;;;;;3.00;1.30;;;;;;;9.30;59.26;97709.52;4480487;77;28580;-82
2021/03/13 19:31:23;;;;;;;4.30;1.52;;;;;;;9.32;59.16;97722.13;4494984;77;85237;-81
2021/03/13 19:37:26;;;;;;;4.78;1.62;;;;;;;9.30;60.50;97733.65;4395019;78;28573;-82
2021/03/13 19:43:28;;;;;;;4.45;1.67;;;;;;;9.37;59.79;97736.63;4379705;79;28653;-81
2021/03/13 19:49:30;;;;;;;4.78;1.67;;;;;;;9.43;60.31;97739.13;4392046;79;28544;-81
2021/03/13 19:55:33;;;;;;;5.17;1.70;;;;;;;9.48;60.85;97739.70;4378267;78;28611;-79
2021/03/13 20:01:36;;;;;;;5.03;2.00;;;;;;;9.49;62.33;97746.69;4379602;78;28552;-81
2021/03/13 20:07:40;;;;;;;4.35;2.22;;;;;;;9.51;62.52;97744.55;4385775;78;28662;-81
2021/03/13 20:13:42;;;;;;;5.08;1.70;;;;;;;9.41;63.45;97741.23;4394167;79;28638;-82
2021/03/13 20:19:45;;;;;;;5.08;2.05;;;;;;;9.27;64.65;97740.05;4398572;79;28596;-81
2021/03/13 20:25:47;;;;;;;6.22;2.55;;;;;;;9.11;66.34;97745.28;4405453;78;28622;-83
2021/03/13 20:31:49;;;;;;;6.12;2.15;;;;;;;8.98;67.76;97734.42;4396178;80;28568;-82
2021/03/13 20:37:52;;;;;;;4.12;1.98;;;;;;;8.80;70.30;97746.30;4399051;80;28581;-81
2021/03/13 20:43:57;;;;;;;6.10;2.35;;;;;;;8.61;71.99;97733.23;4392283;80;28554;-82
2021/03/13 20:50:00;;;;;;;6.58;2.62;;;;;;;8.43;74.01;97736.19;4455130;78;28571;-82
2021/03/13 20:56:02;;;;;;;4.75;2.22;;;;;;;8.42;74.57;97730.55;4409697;80;28559;-82
2021/03/13 21:02:05;;;;;;;4.97;2.33;;;;;;;8.27;76.81;97744.56;4435233;80;28643;-81
2021/03/13 21:08:08;;;;;;;6.62;2.33;;;;;;;8.03;79.49;97743.45;4397087;79;28571;-82
2021/03/13 21:14:10;;;;;;;5.85;2.30;;;;;;;7.86;80.87;97748.28;4424405;80;28598;-82
2021/03/13 21:20:14;;;;;;;7.40;2.72;;;;;;;7.94;80.65;97749.21;4409607;80;28551;-82
2021/03/13 21:26:17;;;;;;;5.72;2.25;;;;;;;7.89;82.87;97742.43;4409239;80;28656;-82
2021/03/13 21:32:19;;;;;;;5.33;2.17;;;;;;;7.94;83.10;97749.73;4396342;80;28558;-82
2021/03/13 21:38:21;;;;;;;7.37;2.40;;;;;;;8.06;84.16;97741.61;4389789;78;28620;-85
2021/03/13 21:44:24;;;;;;;6.05;2.05;;;;;;;8.05;84.49;97739.44;4423909;80;28555;-85
2021/03/13 21:50:25;;;;;;;4.62;1.72;;;;;;;8.13;85.03;97728.04;4398977;78;28544;-83
2021/03/13 21:56:27;;;;;;;4.97;1.70;;;;;;;8.27;86.94;97719.12;4393497;78;28594;-80
2021/03/13 22:02:29;;;;;;;2.75;1.40;;;;;;;8.28;87.47;97706.83;4398711;78;28547;-80
2021/03/13 22:08:32;;;;;;;3.50;1.70;;;;;;;8.35;87.21;97683.87;4416000;78;28649;-80
2021/03/13 22:14:34;;;;;;;2.85;1.50;;;;;;;8.46;86.62;97679.44;4399033;78;28626;-80
2021/03/13 22:20:36;;;;;;;3.33;1.45;;;;;;;8.57;86.45;97664.33;4397920;78;28644;-79
2021/03/13 22:26:38;;;;;;;5.05;1.60;;;;;;;8.58;85.83;97654.68;4407466;78;28616;-84
2021/03/13 22:32:41;;;;;;;3.42;1.60;;;;;;;8.65;86.36;97677.28;4421906;79;28541;-85
2021/03/13 22:38:43;;;;;;;3.52;2.00;;;;;;;8.70;86.15;97676.52;4413274;80;28579;-81
2021/03/13 22:44:46;;;;;;;3.52;1.62;;;;;;;8.65;88.32;97674.05;4405799;78;28574;-80
2021/03/13 22:50:48;;;;;;;2.55;1.55;;;;;;;8.69;87.77;97681.58;4411531;78;28551;-81
2021/03/13 22:56:50;;;;;;;2.62;1.40;;;;;;;8.73;88.21;97666.63;4427490;78;28618;-80
2021/03/13 23:02:53;;;;;;;4.90;1.85;;;;;;;8.57;90.53;97662.44;4393428;78;28664;-80
2021/03/13 23:08:55;;;;;;;3.90;1.90;;;;;;;8.47;93.56;97652.92;4394818;78;28627;-80
2021/03/13 23:14:57;;;;;;;5.47;1.90;;;;;;;8.46;95.04;97652.65;4421453;78;28595;-81
2021/03/13 23:20:59;;;;;;;2.80;1.52;;;;;;;8.53;98.46;97650.62;4408348;78;28588;-81
2021/03/13 23:27:01;;;;;;;4.67;1.82;;;;;;;8.58;98.36;97638.61;4410298;78;28585;-81
2021/03/13 23:33:07;;;;;;;4.78;1.85;;;;;;;8.65;99.18;97641.11;4388973;79;28556;-81
2021/03/13 23:39:08;;;;;;;4.40;2.25;;;;;;;8.71;100.00;97648.11;4383475;79;28568;-81
2021/03/13 23:45:18;;;;;;;4.05;2.22;;;;;;;8.85;100.00;97668.63;4402588;79;28596;-82
2021/03/13 23:51:21;;;;;;;3.80;2.10;;;;;;;8.96;100.00;97672.73;4403226;79;28536;-80
2021/03/13 23:57:23;;;;;;;4.15;1.82;;;;;;;9.06;100.00;97677.67;4394826;79;28678;-81
